sensor_id;sensor_type;location;lat;lon;timestamp;temperature;humidity
10812;DHT22;5458;51.496;7.334;2022-07-15T00:02:18;18.90;92.30
10812;DHT22;5458;51.496;7.334;2022-07-15T00:04:43;18.90;92.30
10812;DHT22;5458;51.496;7.334;2022-07-15T00:07:09;18.80;92.50
10812;DHT22;5458;51.496;7.334;2022-07-15T00:09:34;18.80;92.70
10812;DHT22;5458;51.496;7.334;2022-07-15T00:12:19;18.80;92.90
10812;DHT22;5458;51.496;7.334;2022-07-15T00:14:44;18.70;93.00
10812;DHT22;5458;51.496;7.334;2022-07-15T00:17:10;18.70;93.10
10812;DHT22;5458;51.496;7.334;2022-07-15T00:19:36;18.80;93.10
10812;DHT22;5458;51.496;7.334;2022-07-15T00:22:01;18.80;93.10
10812;DHT22;5458;51.496;7.334;2022-07-15T00:24:28;18.80;93.10
10812;DHT22;5458;51.496;7.334;2022-07-15T00:26:54;18.80;93.10
10812;DHT22;5458;51.496;7.334;2022-07-15T00:29:20;18.80;93.10
10812;DHT22;5458;51.496;7.334;2022-07-15T00:31:45;18.80;93.10
10812;DHT22;5458;51.496;7.334;2022-07-15T00:34:11;18.90;93.20
10812;DHT22;5458;51.496;7.334;2022-07-15T00:36:37;18.90;93.30
10812;DHT22;5458;51.496;7.334;2022-07-15T00:39:03;18.90;93.30
10812;DHT22;5458;51.496;7.334;2022-07-15T00:41:36;18.90;93.40
10812;DHT22;5458;51.496;7.334;2022-07-15T00:44:02;18.80;93.40
10812;DHT22;5458;51.496;7.334;2022-07-15T00:46:28;18.80;93.70
10812;DHT22;5458;51.496;7.334;2022-07-15T00:48:53;18.80;93.70
10812;DHT22;5458;51.496;7.334;2022-07-15T00:51:19;18.80;93.70
10812;DHT22;5458;51.496;7.334;2022-07-15T00:53:45;18.80;93.80
10812;DHT22;5458;51.496;7.334;2022-07-15T00:56:14;18.80;93.80
10812;DHT22;5458;51.496;7.334;2022-07-15T00:58:43;18.90;93.80
10812;DHT22;5458;51.496;7.334;2022-07-15T01:01:10;18.90;93.90
10812;DHT22;5458;51.496;7.334;2022-07-15T01:03:36;18.80;93.90
10812;DHT22;5458;51.496;7.334;2022-07-15T01:06:03;18.80;93.90
10812;DHT22;5458;51.496;7.334;2022-07-15T01:08:29;18.80;93.90
10812;DHT22;5458;51.496;7.334;2022-07-15T01:10:55;18.80;94.10
10812;DHT22;5458;51.496;7.334;2022-07-15T01:13:21;18.70;94.20
10812;DHT22;5458;51.496;7.334;2022-07-15T01:15:48;18.70;94.20
10812;DHT22;5458;51.496;7.334;2022-07-15T01:18:14;18.80;94.30
10812;DHT22;5458;51.496;7.334;2022-07-15T01:20:41;18.80;94.40
10812;DHT22;5458;51.496;7.334;2022-07-15T01:23:07;18.70;94.40
10812;DHT22;5458;51.496;7.334;2022-07-15T01:25:32;18.70;94.40
10812;DHT22;5458;51.496;7.334;2022-07-15T01:27:59;18.70;94.40
10812;DHT22;5458;51.496;7.334;2022-07-15T01:30:25;18.60;94.30
10812;DHT22;5458;51.496;7.334;2022-07-15T01:32:51;18.60;94.40
10812;DHT22;5458;51.496;7.334;2022-07-15T01:35:17;18.60;94.50
10812;DHT22;5458;51.496;7.334;2022-07-15T01:37:43;18.60;94.60
10812;DHT22;5458;51.496;7.334;2022-07-15T01:40:10;18.60;94.60
10812;DHT22;5458;51.496;7.334;2022-07-15T01:42:36;18.50;94.60
10812;DHT22;5458;51.496;7.334;2022-07-15T01:45:03;18.50;94.60
10812;DHT22;5458;51.496;7.334;2022-07-15T01:47:29;18.50;94.60
10812;DHT22;5458;51.496;7.334;2022-07-15T01:49:54;18.50;94.60
10812;DHT22;5458;51.496;7.334;2022-07-15T01:52:20;18.50;94.50
10812;DHT22;5458;51.496;7.334;2022-07-15T01:54:46;18.40;94.50
10812;DHT22;5458;51.496;7.334;2022-07-15T01:57:12;18.30;94.70
10812;DHT22;5458;51.496;7.334;2022-07-15T01:59:37;18.30;94.80
10812;DHT22;5458;51.496;7.334;2022-07-15T02:02:03;18.30;94.90
10812;DHT22;5458;51.496;7.334;2022-07-15T02:04:29;18.30;94.90
10812;DHT22;5458;51.496;7.334;2022-07-15T02:06:54;18.30;95.00
10812;DHT22;5458;51.496;7.334;2022-07-15T02:09:20;18.40;94.90
10812;DHT22;5458;51.496;7.334;2022-07-15T02:11:45;18.30;94.90
10812;DHT22;5458;51.496;7.334;2022-07-15T02:14:11;18.40;95.00
10812;DHT22;5458;51.496;7.334;2022-07-15T02:16:37;18.30;95.20
10812;DHT22;5458;51.496;7.334;2022-07-15T02:19:03;18.30;94.90
10812;DHT22;5458;51.496;7.334;2022-07-15T02:21:29;18.20;95.00
10812;DHT22;5458;51.496;7.334;2022-07-15T02:23:55;18.20;94.90
10812;DHT22;5458;51.496;7.334;2022-07-15T02:26:22;18.20;95.00
10812;DHT22;5458;51.496;7.334;2022-07-15T02:28:48;18.20;95.00
10812;DHT22;5458;51.496;7.334;2022-07-15T02:31:14;18.20;95.10
10812;DHT22;5458;51.496;7.334;2022-07-15T02:33:40;18.10;95.10
10812;DHT22;5458;51.496;7.334;2022-07-15T02:36:07;18.10;95.00
10812;DHT22;5458;51.496;7.334;2022-07-15T02:38:33;18.00;95.00
10812;DHT22;5458;51.496;7.334;2022-07-15T02:40:59;18.00;95.10
10812;DHT22;5458;51.496;7.334;2022-07-15T02:43:24;17.90;95.20
10812;DHT22;5458;51.496;7.334;2022-07-15T02:45:50;17.90;95.30
10812;DHT22;5458;51.496;7.334;2022-07-15T02:48:16;17.90;95.30
10812;DHT22;5458;51.496;7.334;2022-07-15T02:50:41;17.80;95.20
10812;DHT22;5458;51.496;7.334;2022-07-15T02:53:08;17.80;95.20
10812;DHT22;5458;51.496;7.334;2022-07-15T02:55:34;17.70;95.50
10812;DHT22;5458;51.496;7.334;2022-07-15T02:57:59;17.70;95.60
10812;DHT22;5458;51.496;7.334;2022-07-15T03:00:25;17.60;95.70
10812;DHT22;5458;51.496;7.334;2022-07-15T03:02:51;17.60;95.70
10812;DHT22;5458;51.496;7.334;2022-07-15T03:05:17;17.60;95.70
10812;DHT22;5458;51.496;7.334;2022-07-15T03:07:43;17.50;95.80
10812;DHT22;5458;51.496;7.334;2022-07-15T03:10:10;17.40;95.90
10812;DHT22;5458;51.496;7.334;2022-07-15T03:12:36;17.40;96.00
10812;DHT22;5458;51.496;7.334;2022-07-15T03:15:02;17.40;96.10
10812;DHT22;5458;51.496;7.334;2022-07-15T03:17:28;17.40;96.10
10812;DHT22;5458;51.496;7.334;2022-07-15T03:19:54;17.30;96.10
10812;DHT22;5458;51.496;7.334;2022-07-15T03:22:23;17.30;96.20
10812;DHT22;5458;51.496;7.334;2022-07-15T03:24:49;17.30;96.30
10812;DHT22;5458;51.496;7.334;2022-07-15T03:27:15;17.20;96.40
10812;DHT22;5458;51.496;7.334;2022-07-15T03:29:42;17.20;96.60
10812;DHT22;5458;51.496;7.334;2022-07-15T03:32:08;17.20;96.70
10812;DHT22;5458;51.496;7.334;2022-07-15T03:34:36;17.20;96.80
10812;DHT22;5458;51.496;7.334;2022-07-15T03:37:01;17.20;96.80
10812;DHT22;5458;51.496;7.334;2022-07-15T03:39:27;17.10;96.80
10812;DHT22;5458;51.496;7.334;2022-07-15T03:41:53;17.10;96.80
10812;DHT22;5458;51.496;7.334;2022-07-15T03:44:19;17.10;97.30
10812;DHT22;5458;51.496;7.334;2022-07-15T03:46:44;17.10;97.00
10812;DHT22;5458;51.496;7.334;2022-07-15T03:49:14;17.10;97.00
10812;DHT22;5458;51.496;7.334;2022-07-15T03:51:40;17.00;97.10
10812;DHT22;5458;51.496;7.334;2022-07-15T03:54:06;17.00;97.20
10812;DHT22;5458;51.496;7.334;2022-07-15T03:56:35;17.00;97.20
10812;DHT22;5458;51.496;7.334;2022-07-15T03:59:02;17.00;97.40
10812;DHT22;5458;51.496;7.334;2022-07-15T04:01:28;17.00;97.40
10812;DHT22;5458;51.496;7.334;2022-07-15T04:03:54;17.00;97.40
10812;DHT22;5458;51.496;7.334;2022-07-15T04:06:20;17.00;97.40
10812;DHT22;5458;51.496;7.334;2022-07-15T04:08:46;17.00;97.40
10812;DHT22;5458;51.496;7.334;2022-07-15T04:11:12;17.00;97.40
10812;DHT22;5458;51.496;7.334;2022-07-15T04:13:38;17.00;97.40
10812;DHT22;5458;51.496;7.334;2022-07-15T04:16:05;17.00;97.50
10812;DHT22;5458;51.496;7.334;2022-07-15T04:18:31;17.00;97.40
10812;DHT22;5458;51.496;7.334;2022-07-15T04:20:57;17.10;97.50
10812;DHT22;5458;51.496;7.334;2022-07-15T04:23:23;17.10;97.50
10812;DHT22;5458;51.496;7.334;2022-07-15T04:25:50;17.10;97.90
10812;DHT22;5458;51.496;7.334;2022-07-15T04:28:23;17.10;97.60
10812;DHT22;5458;51.496;7.334;2022-07-15T04:30:49;17.10;97.50
10812;DHT22;5458;51.496;7.334;2022-07-15T04:33:16;17.10;97.70
10812;DHT22;5458;51.496;7.334;2022-07-15T04:35:42;17.10;97.70
10812;DHT22;5458;51.496;7.334;2022-07-15T04:38:08;17.10;97.70
10812;DHT22;5458;51.496;7.334;2022-07-15T04:40:34;17.10;97.70
10812;DHT22;5458;51.496;7.334;2022-07-15T04:43:00;17.10;97.80
10812;DHT22;5458;51.496;7.334;2022-07-15T04:45:26;17.20;97.80
10812;DHT22;5458;51.496;7.334;2022-07-15T04:47:52;17.20;97.70
10812;DHT22;5458;51.496;7.334;2022-07-15T04:50:18;17.30;97.80
10812;DHT22;5458;51.496;7.334;2022-07-15T04:53:02;17.30;97.60
10812;DHT22;5458;51.496;7.334;2022-07-15T04:55:29;17.30;97.50
10812;DHT22;5458;51.496;7.334;2022-07-15T04:57:55;17.40;97.50
10812;DHT22;5458;51.496;7.334;2022-07-15T05:00:21;17.40;97.40
10812;DHT22;5458;51.496;7.334;2022-07-15T05:02:47;17.40;97.40
10812;DHT22;5458;51.496;7.334;2022-07-15T05:05:13;17.40;97.30
10812;DHT22;5458;51.496;7.334;2022-07-15T05:07:39;17.50;97.30
10812;DHT22;5458;51.496;7.334;2022-07-15T05:10:05;17.50;97.30
10812;DHT22;5458;51.496;7.334;2022-07-15T05:12:31;17.50;97.30
10812;DHT22;5458;51.496;7.334;2022-07-15T05:14:57;17.60;97.20
10812;DHT22;5458;51.496;7.334;2022-07-15T05:17:24;17.60;97.20
10812;DHT22;5458;51.496;7.334;2022-07-15T05:19:51;17.70;97.10
10812;DHT22;5458;51.496;7.334;2022-07-15T05:22:18;17.80;97.10
10812;DHT22;5458;51.496;7.334;2022-07-15T05:24:43;17.80;96.80
10812;DHT22;5458;51.496;7.334;2022-07-15T05:27:09;17.90;96.70
10812;DHT22;5458;51.496;7.334;2022-07-15T05:29:35;18.30;96.50
10812;DHT22;5458;51.496;7.334;2022-07-15T05:32:00;19.40;95.10
10812;DHT22;5458;51.496;7.334;2022-07-15T05:34:26;21.30;92.50
10812;DHT22;5458;51.496;7.334;2022-07-15T05:36:52;23.40;88.60
10812;DHT22;5458;51.496;7.334;2022-07-15T05:39:18;25.10;82.00
10812;DHT22;5458;51.496;7.334;2022-07-15T05:41:43;26.70;74.00
10812;DHT22;5458;51.496;7.334;2022-07-15T05:44:09;28.00;67.50
10812;DHT22;5458;51.496;7.334;2022-07-15T05:46:34;29.00;62.50
10812;DHT22;5458;51.496;7.334;2022-07-15T05:49:00;29.80;58.00
10812;DHT22;5458;51.496;7.334;2022-07-15T05:51:26;30.40;56.00
10812;DHT22;5458;51.496;7.334;2022-07-15T05:53:52;30.90;54.70
10812;DHT22;5458;51.496;7.334;2022-07-15T05:56:18;31.60;52.90
10812;DHT22;5458;51.496;7.334;2022-07-15T05:58:43;32.10;51.40
10812;DHT22;5458;51.496;7.334;2022-07-15T06:01:09;32.50;49.90
10812;DHT22;5458;51.496;7.334;2022-07-15T06:03:35;32.90;48.90
10812;DHT22;5458;51.496;7.334;2022-07-15T06:06:02;33.40;47.40
10812;DHT22;5458;51.496;7.334;2022-07-15T06:08:28;33.80;45.90
10812;DHT22;5458;51.496;7.334;2022-07-15T06:10:54;34.30;44.90
10812;DHT22;5458;51.496;7.334;2022-07-15T06:13:20;34.40;44.60
10812;DHT22;5458;51.496;7.334;2022-07-15T06:15:47;33.40;44.80
10812;DHT22;5458;51.496;7.334;2022-07-15T06:18:13;32.80;45.70
10812;DHT22;5458;51.496;7.334;2022-07-15T06:20:38;32.60;45.20
10812;DHT22;5458;51.496;7.334;2022-07-15T06:23:04;32.30;45.80
10812;DHT22;5458;51.496;7.334;2022-07-15T06:25:30;33.20;44.90
10812;DHT22;5458;51.496;7.334;2022-07-15T06:27:56;34.40;43.00
10812;DHT22;5458;51.496;7.334;2022-07-15T06:30:21;35.50;41.50
10812;DHT22;5458;51.496;7.334;2022-07-15T06:32:47;36.30;40.00
10812;DHT22;5458;51.496;7.334;2022-07-15T06:35:12;37.00;38.90
10812;DHT22;5458;51.496;7.334;2022-07-15T06:37:38;37.20;37.80
10812;DHT22;5458;51.496;7.334;2022-07-15T06:40:04;37.80;35.80
10812;DHT22;5458;51.496;7.334;2022-07-15T06:42:30;37.90;35.10
10812;DHT22;5458;51.496;7.334;2022-07-15T06:44:56;38.00;34.40
10812;DHT22;5458;51.496;7.334;2022-07-15T06:47:21;37.90;34.70
10812;DHT22;5458;51.496;7.334;2022-07-15T06:49:47;38.00;34.50
10812;DHT22;5458;51.496;7.334;2022-07-15T06:52:14;38.10;34.20
10812;DHT22;5458;51.496;7.334;2022-07-15T06:54:40;38.30;33.90
10812;DHT22;5458;51.496;7.334;2022-07-15T06:57:05;38.20;34.20
10812;DHT22;5458;51.496;7.334;2022-07-15T06:59:31;38.60;33.80
10812;DHT22;5458;51.496;7.334;2022-07-15T07:01:58;38.30;33.30
10812;DHT22;5458;51.496;7.334;2022-07-15T07:04:24;38.50;33.80
10812;DHT22;5458;51.496;7.334;2022-07-15T07:06:49;38.70;33.30
10812;DHT22;5458;51.496;7.334;2022-07-15T07:09:15;38.70;32.90
10812;DHT22;5458;51.496;7.334;2022-07-15T07:11:41;38.90;31.50
10812;DHT22;5458;51.496;7.334;2022-07-15T07:14:06;39.20;31.10
10812;DHT22;5458;51.496;7.334;2022-07-15T07:16:33;39.20;30.80
10812;DHT22;5458;51.496;7.334;2022-07-15T07:18:59;38.80;31.20
10812;DHT22;5458;51.496;7.334;2022-07-15T07:21:24;37.70;31.70
10812;DHT22;5458;51.496;7.334;2022-07-15T07:23:50;35.40;35.00
10812;DHT22;5458;51.496;7.334;2022-07-15T07:26:16;33.90;36.30
10812;DHT22;5458;51.496;7.334;2022-07-15T07:28:42;32.30;37.80
10812;DHT22;5458;51.496;7.334;2022-07-15T07:31:10;30.80;40.00
10812;DHT22;5458;51.496;7.334;2022-07-15T07:33:36;29.70;42.40
10812;DHT22;5458;51.496;7.334;2022-07-15T07:36:04;28.70;43.20
10812;DHT22;5458;51.496;7.334;2022-07-15T07:38:30;27.60;44.80
10812;DHT22;5458;51.496;7.334;2022-07-15T07:40:56;27.10;46.70
10812;DHT22;5458;51.496;7.334;2022-07-15T07:43:21;27.20;47.00
10812;DHT22;5458;51.496;7.334;2022-07-15T07:45:48;27.30;47.40
10812;DHT22;5458;51.496;7.334;2022-07-15T07:48:14;27.40;46.90
10812;DHT22;5458;51.496;7.334;2022-07-15T07:50:40;27.10;47.40
10812;DHT22;5458;51.496;7.334;2022-07-15T07:53:05;26.70;48.40
10812;DHT22;5458;51.496;7.334;2022-07-15T07:55:31;26.20;49.80
10812;DHT22;5458;51.496;7.334;2022-07-15T07:57:58;25.70;50.80
10812;DHT22;5458;51.496;7.334;2022-07-15T08:00:26;25.40;52.10
10812;DHT22;5458;51.496;7.334;2022-07-15T08:02:53;25.10;52.40
10812;DHT22;5458;51.496;7.334;2022-07-15T08:05:19;24.90;53.20
10812;DHT22;5458;51.496;7.334;2022-07-15T08:07:46;24.70;54.30
10812;DHT22;5458;51.496;7.334;2022-07-15T08:10:13;24.50;54.30
10812;DHT22;5458;51.496;7.334;2022-07-15T08:12:39;24.40;54.60
10812;DHT22;5458;51.496;7.334;2022-07-15T08:15:08;24.50;54.70
10812;DHT22;5458;51.496;7.334;2022-07-15T08:17:34;24.70;54.20
10812;DHT22;5458;51.496;7.334;2022-07-15T08:20:00;25.10;52.90
10812;DHT22;5458;51.496;7.334;2022-07-15T08:22:25;26.00;52.20
10812;DHT22;5458;51.496;7.334;2022-07-15T08:24:51;26.60;50.90
10812;DHT22;5458;51.496;7.334;2022-07-15T08:27:17;27.00;50.80
10812;DHT22;5458;51.496;7.334;2022-07-15T08:29:44;27.40;50.90
10812;DHT22;5458;51.496;7.334;2022-07-15T08:32:09;27.70;49.40
10812;DHT22;5458;51.496;7.334;2022-07-15T08:34:35;27.60;49.40
10812;DHT22;5458;51.496;7.334;2022-07-15T08:37:01;27.50;49.00
10812;DHT22;5458;51.496;7.334;2022-07-15T08:39:26;27.40;50.00
10812;DHT22;5458;51.496;7.334;2022-07-15T08:41:52;26.90;49.70
10812;DHT22;5458;51.496;7.334;2022-07-15T08:44:18;26.60;50.00
10812;DHT22;5458;51.496;7.334;2022-07-15T08:46:47;26.30;50.40
10812;DHT22;5458;51.496;7.334;2022-07-15T08:49:15;26.10;50.60
10812;DHT22;5458;51.496;7.334;2022-07-15T08:51:43;25.90;51.00
10812;DHT22;5458;51.496;7.334;2022-07-15T08:54:10;25.90;51.40
10812;DHT22;5458;51.496;7.334;2022-07-15T08:56:35;25.90;51.50
10812;DHT22;5458;51.496;7.334;2022-07-15T08:59:03;25.90;52.20
10812;DHT22;5458;51.496;7.334;2022-07-15T09:01:30;25.90;52.10
10812;DHT22;5458;51.496;7.334;2022-07-15T09:03:57;25.90;51.10
10812;DHT22;5458;51.496;7.334;2022-07-15T09:06:40;25.70;51.80
10812;DHT22;5458;51.496;7.334;2022-07-15T09:09:32;25.40;52.70
10812;DHT22;5458;51.496;7.334;2022-07-15T09:12:01;25.10;53.10
10812;DHT22;5458;51.496;7.334;2022-07-15T09:14:28;24.70;54.50
10812;DHT22;5458;51.496;7.334;2022-07-15T09:20:01;24.20;54.90
10812;DHT22;5458;51.496;7.334;2022-07-15T09:22:30;24.20;55.90
10812;DHT22;5458;51.496;7.334;2022-07-15T09:25:10;24.50;55.40
10812;DHT22;5458;51.496;7.334;2022-07-15T09:27:41;24.90;55.00
10812;DHT22;5458;51.496;7.334;2022-07-15T09:30:21;25.40;55.60
10812;DHT22;5458;51.496;7.334;2022-07-15T09:33:12;25.70;52.00
10812;DHT22;5458;51.496;7.334;2022-07-15T09:36:04;25.70;50.70
10812;DHT22;5458;51.496;7.334;2022-07-15T09:40:57;25.40;51.40
10812;DHT22;5458;51.496;7.334;2022-07-15T09:43:23;25.00;52.40
10812;DHT22;5458;51.496;7.334;2022-07-15T09:45:59;24.70;53.30
10812;DHT22;5458;51.496;7.334;2022-07-15T09:48:26;24.50;53.40
10812;DHT22;5458;51.496;7.334;2022-07-15T09:50:59;24.50;53.80
10812;DHT22;5458;51.496;7.334;2022-07-15T09:53:25;24.70;54.50
10812;DHT22;5458;51.496;7.334;2022-07-15T09:55:51;25.10;55.30
10812;DHT22;5458;51.496;7.334;2022-07-15T09:58:18;25.60;54.50
10812;DHT22;5458;51.496;7.334;2022-07-15T10:00:44;25.90;52.50
10812;DHT22;5458;51.496;7.334;2022-07-15T10:03:11;25.90;50.40
10812;DHT22;5458;51.496;7.334;2022-07-15T10:05:39;26.30;49.60
10812;DHT22;5458;51.496;7.334;2022-07-15T10:08:06;26.10;50.00
10812;DHT22;5458;51.496;7.334;2022-07-15T10:10:35;26.00;50.40
10812;DHT22;5458;51.496;7.334;2022-07-15T10:16:14;26.30;51.20
10812;DHT22;5458;51.496;7.334;2022-07-15T10:19:13;26.70;50.10
10812;DHT22;5458;51.496;7.334;2022-07-15T10:29:54;26.30;49.80
10812;DHT22;5458;51.496;7.334;2022-07-15T10:32:20;26.30;49.50
10812;DHT22;5458;51.496;7.334;2022-07-15T10:34:46;25.70;49.50
10812;DHT22;5458;51.496;7.334;2022-07-15T10:37:14;25.50;51.40
10812;DHT22;5458;51.496;7.334;2022-07-15T10:42:19;25.40;50.70
10812;DHT22;5458;51.496;7.334;2022-07-15T10:45:04;25.30;51.20
10812;DHT22;5458;51.496;7.334;2022-07-15T10:47:32;25.40;50.90
10812;DHT22;5458;51.496;7.334;2022-07-15T10:49:57;25.30;51.20
10812;DHT22;5458;51.496;7.334;2022-07-15T10:52:26;25.30;51.30
10812;DHT22;5458;51.496;7.334;2022-07-15T10:57:20;25.30;50.90
10812;DHT22;5458;51.496;7.334;2022-07-15T10:59:52;25.20;51.60
10812;DHT22;5458;51.496;7.334;2022-07-15T11:02:20;24.90;52.60
10812;DHT22;5458;51.496;7.334;2022-07-15T11:04:47;24.80;53.50
10812;DHT22;5458;51.496;7.334;2022-07-15T11:14:55;24.80;54.20
10812;DHT22;5458;51.496;7.334;2022-07-15T11:19:54;25.00;53.80
10812;DHT22;5458;51.496;7.334;2022-07-15T11:22:22;25.10;54.00
10812;DHT22;5458;51.496;7.334;2022-07-15T11:24:48;25.20;53.60
10812;DHT22;5458;51.496;7.334;2022-07-15T11:27:14;25.10;53.90
10812;DHT22;5458;51.496;7.334;2022-07-15T11:29:41;25.10;54.20
10812;DHT22;5458;51.496;7.334;2022-07-15T11:32:07;25.10;54.20
10812;DHT22;5458;51.496;7.334;2022-07-15T11:34:41;25.10;53.90
10812;DHT22;5458;51.496;7.334;2022-07-15T11:37:08;24.90;53.80
10812;DHT22;5458;51.496;7.334;2022-07-15T11:39:36;25.00;54.30
10812;DHT22;5458;51.496;7.334;2022-07-15T11:42:02;24.90;54.30
10812;DHT22;5458;51.496;7.334;2022-07-15T11:44:48;24.90;53.90
10812;DHT22;5458;51.496;7.334;2022-07-15T11:47:14;24.80;54.90
10812;DHT22;5458;51.496;7.334;2022-07-15T11:49:39;24.90;54.20
10812;DHT22;5458;51.496;7.334;2022-07-15T11:52:07;24.90;53.10
10812;DHT22;5458;51.496;7.334;2022-07-15T11:54:38;24.80;52.90
10812;DHT22;5458;51.496;7.334;2022-07-15T11:57:09;24.80;52.80
10812;DHT22;5458;51.496;7.334;2022-07-15T11:59:35;24.80;53.10
10812;DHT22;5458;51.496;7.334;2022-07-15T12:02:10;24.90;53.10
10812;DHT22;5458;51.496;7.334;2022-07-15T12:04:36;25.00;52.40
10812;DHT22;5458;51.496;7.334;2022-07-15T12:07:03;25.10;52.10
10812;DHT22;5458;51.496;7.334;2022-07-15T12:09:46;25.00;52.60
10812;DHT22;5458;51.496;7.334;2022-07-15T12:12:12;25.00;52.70
10812;DHT22;5458;51.496;7.334;2022-07-15T12:14:39;25.10;52.60
10812;DHT22;5458;51.496;7.334;2022-07-15T12:17:05;25.20;52.70
10812;DHT22;5458;51.496;7.334;2022-07-15T12:19:32;25.30;51.60
10812;DHT22;5458;51.496;7.334;2022-07-15T12:22:04;25.30;52.00
10812;DHT22;5458;51.496;7.334;2022-07-15T12:24:40;25.30;51.70
10812;DHT22;5458;51.496;7.334;2022-07-15T12:27:06;25.50;52.20
10812;DHT22;5458;51.496;7.334;2022-07-15T12:29:33;25.50;52.70
10812;DHT22;5458;51.496;7.334;2022-07-15T12:32:01;25.70;52.00
10812;DHT22;5458;51.496;7.334;2022-07-15T12:37:13;25.90;51.60
10812;DHT22;5458;51.496;7.334;2022-07-15T12:39:57;25.70;51.20
10812;DHT22;5458;51.496;7.334;2022-07-15T12:42:24;25.70;50.70
10812;DHT22;5458;51.496;7.334;2022-07-15T12:45:56;25.60;49.40
10812;DHT22;5458;51.496;7.334;2022-07-15T12:48:06;25.50;48.90
10812;DHT22;5458;51.496;7.334;2022-07-15T12:50:56;25.30;49.20
10812;DHT22;5458;51.496;7.334;2022-07-15T12:53:25;25.00;50.00
10812;DHT22;5458;51.496;7.334;2022-07-15T12:55:53;25.00;51.10
10812;DHT22;5458;51.496;7.334;2022-07-15T12:58:29;25.00;50.50
10812;DHT22;5458;51.496;7.334;2022-07-15T13:01:10;25.00;50.70
10812;DHT22;5458;51.496;7.334;2022-07-15T13:03:37;25.10;50.40
10812;DHT22;5458;51.496;7.334;2022-07-15T13:06:03;25.20;50.80
10812;DHT22;5458;51.496;7.334;2022-07-15T13:08:31;25.30;50.20
10812;DHT22;5458;51.496;7.334;2022-07-15T13:11:00;25.30;49.70
10812;DHT22;5458;51.496;7.334;2022-07-15T13:13:27;25.20;49.20
10812;DHT22;5458;51.496;7.334;2022-07-15T13:15:53;25.20;50.00
10812;DHT22;5458;51.496;7.334;2022-07-15T13:18:20;25.30;50.10
10812;DHT22;5458;51.496;7.334;2022-07-15T13:20:47;25.30;50.50
10812;DHT22;5458;51.496;7.334;2022-07-15T13:23:13;25.40;50.70
10812;DHT22;5458;51.496;7.334;2022-07-15T13:25:39;25.40;49.00
10812;DHT22;5458;51.496;7.334;2022-07-15T13:28:09;25.30;49.80
10812;DHT22;5458;51.496;7.334;2022-07-15T13:30:36;25.30;48.90
10812;DHT22;5458;51.496;7.334;2022-07-15T13:33:02;25.10;48.80
10812;DHT22;5458;51.496;7.334;2022-07-15T13:35:28;25.00;48.80
10812;DHT22;5458;51.496;7.334;2022-07-15T13:37:54;24.70;49.20
10812;DHT22;5458;51.496;7.334;2022-07-15T13:40:20;24.70;49.80
10812;DHT22;5458;51.496;7.334;2022-07-15T13:42:46;24.70;50.20
10812;DHT22;5458;51.496;7.334;2022-07-15T13:45:13;24.60;49.90
10812;DHT22;5458;51.496;7.334;2022-07-15T13:47:40;24.60;51.40
10812;DHT22;5458;51.496;7.334;2022-07-15T13:50:07;24.70;50.80
10812;DHT22;5458;51.496;7.334;2022-07-15T13:52:54;24.90;50.50
10812;DHT22;5458;51.496;7.334;2022-07-15T13:55:21;25.10;49.20
10812;DHT22;5458;51.496;7.334;2022-07-15T13:57:47;25.20;48.30
10812;DHT22;5458;51.496;7.334;2022-07-15T14:00:15;25.30;48.60
10812;DHT22;5458;51.496;7.334;2022-07-15T14:02:42;25.40;47.80
10812;DHT22;5458;51.496;7.334;2022-07-15T14:05:09;25.70;49.00
10812;DHT22;5458;51.496;7.334;2022-07-15T14:07:35;25.80;48.10
10812;DHT22;5458;51.496;7.334;2022-07-15T14:10:01;25.90;48.00
10812;DHT22;5458;51.496;7.334;2022-07-15T14:12:27;25.90;47.40
10812;DHT22;5458;51.496;7.334;2022-07-15T14:14:53;25.70;47.90
10812;DHT22;5458;51.496;7.334;2022-07-15T14:17:19;25.50;47.20
10812;DHT22;5458;51.496;7.334;2022-07-15T14:19:44;25.40;47.00
10812;DHT22;5458;51.496;7.334;2022-07-15T14:22:10;25.30;47.30
10812;DHT22;5458;51.496;7.334;2022-07-15T14:24:36;25.20;48.30
10812;DHT22;5458;51.496;7.334;2022-07-15T14:27:02;25.10;48.30
10812;DHT22;5458;51.496;7.334;2022-07-15T14:29:28;25.10;48.80
10812;DHT22;5458;51.496;7.334;2022-07-15T14:31:53;25.10;49.20
10812;DHT22;5458;51.496;7.334;2022-07-15T14:34:19;25.00;47.80
10812;DHT22;5458;51.496;7.334;2022-07-15T14:36:45;25.00;48.80
10812;DHT22;5458;51.496;7.334;2022-07-15T14:39:10;25.10;48.90
10812;DHT22;5458;51.496;7.334;2022-07-15T14:41:36;25.20;49.40
10812;DHT22;5458;51.496;7.334;2022-07-15T14:44:02;25.20;48.70
10812;DHT22;5458;51.496;7.334;2022-07-15T14:46:28;25.20;48.40
10812;DHT22;5458;51.496;7.334;2022-07-15T14:48:54;25.20;49.10
10812;DHT22;5458;51.496;7.334;2022-07-15T14:51:20;25.10;49.10
10812;DHT22;5458;51.496;7.334;2022-07-15T14:53:46;25.00;48.70
10812;DHT22;5458;51.496;7.334;2022-07-15T14:56:12;24.90;48.30
10812;DHT22;5458;51.496;7.334;2022-07-15T14:58:37;24.90;48.90
10812;DHT22;5458;51.496;7.334;2022-07-15T15:01:03;24.90;49.30
10812;DHT22;5458;51.496;7.334;2022-07-15T15:03:29;25.00;49.00
10812;DHT22;5458;51.496;7.334;2022-07-15T15:05:55;25.10;48.90
10812;DHT22;5458;51.496;7.334;2022-07-15T15:08:21;25.30;49.10
10812;DHT22;5458;51.496;7.334;2022-07-15T15:10:47;25.00;48.30
10812;DHT22;5458;51.496;7.334;2022-07-15T15:13:13;24.90;49.10
10812;DHT22;5458;51.496;7.334;2022-07-15T15:15:38;24.70;49.10
10812;DHT22;5458;51.496;7.334;2022-07-15T15:18:04;24.70;49.30
10812;DHT22;5458;51.496;7.334;2022-07-15T15:20:29;24.70;49.20
10812;DHT22;5458;51.496;7.334;2022-07-15T15:22:55;24.70;49.60
10812;DHT22;5458;51.496;7.334;2022-07-15T15:25:21;24.70;49.60
10812;DHT22;5458;51.496;7.334;2022-07-15T15:28:05;24.70;49.60
10812;DHT22;5458;51.496;7.334;2022-07-15T15:30:32;24.70;50.10
10812;DHT22;5458;51.496;7.334;2022-07-15T15:32:57;24.70;49.20
10812;DHT22;5458;51.496;7.334;2022-07-15T15:35:24;24.90;48.90
10812;DHT22;5458;51.496;7.334;2022-07-15T15:37:49;24.90;48.70
10812;DHT22;5458;51.496;7.334;2022-07-15T15:40:15;24.80;49.10
10812;DHT22;5458;51.496;7.334;2022-07-15T15:42:41;24.80;48.90
10812;DHT22;5458;51.496;7.334;2022-07-15T15:45:07;24.90;49.00
10812;DHT22;5458;51.496;7.334;2022-07-15T15:47:33;25.00;49.20
10812;DHT22;5458;51.496;7.334;2022-07-15T15:49:58;25.10;49.30
10812;DHT22;5458;51.496;7.334;2022-07-15T15:52:24;25.30;49.20
10812;DHT22;5458;51.496;7.334;2022-07-15T15:54:50;25.40;48.60
10812;DHT22;5458;51.496;7.334;2022-07-15T15:57:16;25.50;48.90
10812;DHT22;5458;51.496;7.334;2022-07-15T15:59:41;25.50;48.70
10812;DHT22;5458;51.496;7.334;2022-07-15T16:02:07;25.40;48.50
10812;DHT22;5458;51.496;7.334;2022-07-15T16:04:33;25.20;48.60
10812;DHT22;5458;51.496;7.334;2022-07-15T16:06:59;25.10;48.90
10812;DHT22;5458;51.496;7.334;2022-07-15T16:09:25;25.10;49.20
10812;DHT22;5458;51.496;7.334;2022-07-15T16:11:50;24.90;48.50
10812;DHT22;5458;51.496;7.334;2022-07-15T16:14:16;24.80;49.00
10812;DHT22;5458;51.496;7.334;2022-07-15T16:16:42;24.70;49.40
10812;DHT22;5458;51.496;7.334;2022-07-15T16:19:07;24.70;49.90
10812;DHT22;5458;51.496;7.334;2022-07-15T16:21:33;24.70;49.20